CDT,Max TemperatureF,Mean TemperatureF,Min TemperatureF,Max Dew PointF,MeanDew PointF,Min DewpointF,Max Humidity, Mean Humidity, Min Humidity, Max Sea Level PressureIn, Mean Sea Level PressureIn, Min Sea Level PressureIn, Max VisibilityMiles, Mean VisibilityMiles, Min VisibilityMiles, Max Wind SpeedMPH, Mean Wind SpeedMPH, Max Gust SpeedMPH,PrecipitationIn, CloudCover, Events, WindDirDegrees
2013-7-1,82,66,51,57,50,45,82,57,26,30.19,30.15,30.11,10,8,2,15,2,20,0.00,1,,27
2013-7-2,82,68,53,63,53,46,88,62,30,30.18,30.13,30.07,10,10,7,9,1,22,0.00,1,Rain,305
2013-7-3,84,70,55,63,56,48,88,66,30,30.09,30.05,29.98,10,9,3,7,1,,0.00,1,,165
2013-7-4,86,70,55,57,54,46,88,57,27,30.04,30.00,29.94,10,10,10,13,4,18,0.00,1,,172
2013-7-5,87,76,64,63,60,55,77,57,38,29.97,29.94,29.88,10,10,7,16,8,22,0.00,1,,165
2013-7-6,89,78,68,66,62,57,73,58,40,29.94,29.90,29.86,10,10,10,18,11,23,0.00,1,,168
2013-7-7,91,81,71,70,65,61,73,58,41,29.94,29.90,29.85,10,10,10,16,8,23,0.00,1,Rain,189
2013-7-8,86,80,73,73,69,64,78,66,58,30.01,29.97,29.94,10,10,7,13,4,18,0.00,1,Rain,191
2013-7-9,91,83,75,77,72,66,89,69,55,29.99,29.93,29.89,10,10,7,17,7,21,0.08,2,Rain,206
2013-7-10,84,73,62,72,64,57,89,67,45,30.11,30.05,29.95,10,10,10,12,5,,0.00,2,,18
2013-7-11,86,73,60,63,58,55,88,61,35,30.13,30.07,30.00,10,10,1,10,4,16,0.00,1,,128
2013-7-12,89,76,62,64,61,55,77,57,43,30.06,30.02,29.97,10,10,4,17,8,23,0.00,1,,154
2013-7-13,87,79,71,72,63,55,73,61,53,30.04,30.01,29.97,10,10,10,15,9,21,0.00,1,,148
2013-7-14,87,78,68,61,59,54,78,55,33,30.18,30.09,30.02,10,10,10,15,9,21,0.00,1,,135
2013-7-15,87,76,64,70,64,57,83,67,46,30.22,30.18,30.14,10,10,7,12,4,,0.00,1,,130
2013-7-16,89,78,66,72,66,61,88,69,46,30.28,30.24,30.20,10,10,7,7,1,,0.00,1,,173
2013-7-17,91,80,69,72,68,64,83,67,43,30.33,30.27,30.20,10,10,5,9,2,,0.00,1,,184
2013-7-18,91,81,71,70,67,64,78,61,41,30.21,30.10,29.98,10,10,5,18,6,24,0.00,1,,200
2013-7-19,91,80,69,73,67,63,83,65,46,29.98,29.94,29.88,10,10,4,12,5,,0.00,1,,249
2013-7-20,86,74,62,66,62,57,88,66,42,30.01,29.94,29.87,10,10,10,8,2,,0.00,1,,85
2013-7-21,87,78,68,72,67,63,83,71,49,29.94,29.87,29.80,10,10,7,9,2,,0.00,3,Rain,155
2013-7-22,91,78,64,75,70,61,88,72,52,29.85,29.81,29.75,10,10,2,12,4,18,0.00,2,,198
2013-7-23,80,72,64,66,62,57,88,73,54,30.06,29.94,29.84,10,10,7,21,6,30,0.10,2,Rain,57
2013-7-24,82,68,55,64,58,52,88,70,45,30.10,30.06,30.01,10,10,10,9,1,,0.00,1,,9
2013-7-25,82,72,62,68,62,57,83,73,54,30.08,30.06,30.02,10,10,7,15,3,17,0.15,3,Rain,204
2013-7-26,78,68,57,64,58,50,88,67,36,30.12,30.06,30.00,10,9,2,16,4,23,0.01,3,Rain,352
2013-7-27,73,60,48,54,47,41,87,63,31,30.15,30.09,30.03,10,10,10,12,2,20,0.00,1,,345
2013-7-28,75,58,42,55,46,39,93,61,27,30.09,30.07,30.04,10,10,1,8,1,,0.00,1,,313
2013-7-29,66,60,55,61,56,48,88,81,68,30.10,30.07,30.03,10,9,2,15,3,20,0.09,7,Rain,116
2013-7-30,75,70,64,64,63,61,94,80,69,30.12,30.07,30.03,10,7,1,8,3,,0.00,8,Rain,28
2013-7-31,82,71,60,66,62,55,94,74,51,30.17,30.11,30.07,10,7,0,5,0,,0.00,4,Fog,290